Time;durP1;ratioP1;P1;durP2;ratioP2;P2;SDS_P1;SDS_P2;PMS_P1;PMS_P2;Temp;Humidity;BMP_temperature;BMP_pressure;BME280_temperature;BME280_humidity;BME280_pressure;Samples;Min_cycle;Max_cycle;Signal;HPM_P1;HPM_P2
2021/12/13 00:00:06;;;;;;;6.55;4.60;;;7.40;99.90;;;;;;5091292;28;20032;-81
2021/12/13 00:02:50;;;;;;;9.60;5.43;;;7.40;99.90;;;;;;5088705;28;20023;-79
2021/12/13 00:05:43;;;;;;;7.63;5.00;;;7.30;99.90;;;;;;5114066;27;20119;-79
2021/12/13 00:08:17;;;;;;;10.25;5.88;;;7.30;99.90;;;;;;5091742;28;20036;-78
2021/12/13 00:10:54;;;;;;;10.25;5.90;;;7.20;99.90;;;;;;5088340;28;20024;-79
2021/12/13 00:13:24;;;;;;;8.77;4.93;;;7.30;99.90;;;;;;5084804;28;20510;-78
2021/12/13 00:15:54;;;;;;;8.00;5.28;;;7.40;99.90;;;;;;5091159;28;20107;-78
2021/12/13 00:18:26;;;;;;;27.83;11.38;;;7.40;99.90;;;;;;5091231;28;20036;-79
2021/12/13 00:21:19;;;;;;;33.45;13.40;;;7.40;99.90;;;;;;5092245;28;20047;-79
2021/12/13 00:23:54;;;;;;;13.10;6.00;;;7.40;99.90;;;;;;5088238;28;20032;-79
2021/12/13 00:26:31;;;;;;;11.05;5.57;;;7.30;99.90;;;;;;5086331;28;20024;-79
2021/12/13 00:28:58;;;;;;;12.73;5.68;;;7.30;99.90;;;;;;5085737;28;20088;-79
2021/12/13 00:31:45;;;;;;;17.65;7.28;;;7.30;99.90;;;;;;5090190;28;20114;-78
2021/12/13 00:34:35;;;;;;;12.15;5.57;;;7.30;99.90;;;;;;5082890;28;20035;-79
2021/12/13 00:37:09;;;;;;;14.00;7.93;;;7.30;99.90;;;;;;5082758;28;20032;-78
2021/12/13 00:40:01;;;;;;;13.45;8.68;;;7.30;99.90;;;;;;5087784;28;20039;-79
2021/12/13 00:42:34;;;;;;;15.00;9.38;;;7.40;98.50;;;;;;5087224;28;20032;-79
2021/12/13 00:45:06;;;;;;;13.73;8.15;;;7.40;97.90;;;;;;5079616;28;20109;-79
2021/12/13 00:47:36;;;;;;;6.70;4.28;;;7.40;97.90;;;;;;5092005;28;20028;-79
2021/12/13 00:50:10;;;;;;;18.02;9.52;;;7.40;97.20;;;;;;5082931;28;20024;-79
2021/12/13 00:52:38;;;;;;;7.32;5.30;;;7.50;97.30;;;;;;5089498;28;20555;-79
2021/12/13 00:55:24;;;;;;;10.20;5.07;;;7.50;99.90;;;;;;5087975;28;20036;-79
2021/12/13 00:58:13;;;;;;;6.80;4.63;;;7.40;99.90;;;;;;5089611;28;20197;-80
2021/12/13 01:01:08;;;;;;;7.82;4.80;;;7.40;99.90;;;;;;5087658;28;20029;-79
2021/12/13 01:03:44;;;;;;;3.72;3.17;;;7.40;99.90;;;;;;5086899;28;20036;-79
2021/12/13 01:06:47;;;;;;;4.60;3.22;;;7.40;99.00;;;;;;5089518;28;20024;-81
2021/12/13 01:09:50;;;;;;;4.38;3.22;;;7.40;98.00;;;;;;5083600;28;20028;-80
2021/12/13 01:12:19;;;;;;;;;;;7.50;96.10;;;;;;5084791;28;20601;-81
2021/12/13 01:14:57;;;;;;;3.35;2.97;;;7.50;95.40;;;;;;5086614;28;19911;-80
2021/12/13 01:21:17;;;;;;;6.40;3.50;;;7.70;95.10;;;;;;5083529;28;20085;-79
2021/12/13 01:23:50;;;;;;;6.68;3.67;;;7.70;94.40;;;;;;5081299;28;20024;-79
2021/12/13 01:29:02;;;;;;;4.30;3.60;;;7.80;94.40;;;;;;5083782;28;20036;-80
2021/12/13 01:31:35;;;;;;;5.47;3.70;;;7.90;94.10;;;;;;5083505;28;20031;-81
2021/12/13 01:34:01;;;;;;;;;;;7.90;94.20;;;;;;5085904;28;20191;-78
2021/12/13 01:36:49;;;;;;;4.55;2.90;;;7.90;94.20;;;;;;5089157;28;19907;-76
2021/12/13 01:39:25;;;;;;;7.60;4.20;;;7.90;94.40;;;;;;5089741;28;20035;-76
2021/12/13 01:41:59;;;;;;;5.80;4.13;;;7.80;95.40;;;;;;5082277;28;20576;-76
2021/12/13 01:44:30;;;;;;;9.30;4.57;;;7.80;96.70;;;;;;5080658;28;20480;-77
2021/12/13 01:47:06;;;;;;;9.02;4.72;;;7.70;97.70;;;;;;5087982;28;20035;-77
2021/12/13 01:49:41;;;;;;;8.65;4.90;;;7.70;98.40;;;;;;5088558;28;20039;-76
2021/12/13 01:52:27;;;;;;;7.18;4.93;;;7.70;98.40;;;;;;5089996;28;20036;-76
2021/12/13 01:54:55;;;;;;;8.55;4.82;;;7.70;99.00;;;;;;5080991;28;20046;-76
2021/12/13 01:57:26;;;;;;;7.38;5.07;;;7.70;99.60;;;;;;5087572;28;20073;-76
2021/12/13 02:00:08;;;;;;;8.57;4.80;;;7.70;99.90;;;;;;5082839;28;20032;-76
2021/12/13 02:02:35;;;;;;;6.78;5.20;;;7.70;99.90;;;;;;5083616;28;20035;-76
2021/12/13 02:05:08;;;;;;;6.40;4.68;;;7.70;99.90;;;;;;5088058;28;20020;-77
2021/12/13 02:07:43;;;;;;;11.02;5.20;;;7.70;99.90;;;;;;5088355;28;20012;-76
2021/12/13 02:10:32;;;;;;;7.18;4.82;;;7.70;99.90;;;;;;5084659;28;20032;-77
2021/12/13 02:13:14;;;;;;;6.68;4.95;;;7.70;99.90;;;;;;5082147;28;20056;-74
2021/12/13 02:18:33;;;;;;;8.05;4.53;;;7.80;99.90;;;;;;5079800;28;20062;-76
2021/12/13 02:21:26;;;;;;;6.32;4.55;;;7.90;99.90;;;;;;5087283;28;20024;-76
2021/12/13 02:23:55;;;;;;;8.02;4.68;;;7.90;99.90;;;;;;5087507;28;20089;-76
2021/12/13 02:26:21;;;;;;;6.18;4.78;;;7.90;99.90;;;;;;5086216;28;20039;-76
2021/12/13 02:28:53;;;;;;;6.85;4.55;;;8.00;99.90;;;;;;5086828;28;20051;-77
2021/12/13 02:31:24;;;;;;;6.47;4.53;;;8.00;99.90;;;;;;5088041;28;20028;-76
2021/12/13 02:33:55;;;;;;;7.68;5.20;;;8.00;99.90;;;;;;5090165;28;20048;-76
2021/12/13 02:36:35;;;;;;;5.47;4.40;;;8.00;99.90;;;;;;5085947;28;20052;-76
2021/12/13 02:39:07;;;;;;;6.60;3.90;;;8.00;99.90;;;;;;5089224;28;20027;-76
2021/12/13 02:41:34;;;;;;;6.30;4.18;;;7.90;99.90;;;;;;5091141;28;20035;-76
2021/12/13 02:44:05;;;;;;;5.15;4.13;;;7.70;99.90;;;;;;5088322;28;20395;-76
2021/12/13 02:46:32;;;;;;;5.68;3.85;;;7.60;99.90;;;;;;5093222;28;20034;-77
2021/12/13 02:49:02;;;;;;;4.72;3.78;;;7.50;99.90;;;;;;5091130;28;20382;-77
2021/12/13 02:51:39;;;;;;;7.25;4.57;;;7.40;99.90;;;;;;5090693;28;20035;-77
2021/12/13 02:54:13;;;;;;;14.60;4.60;;;7.30;99.90;;;;;;5090487;28;20029;-77
2021/12/13 02:56:45;;;;;;;5.28;3.58;;;7.20;99.90;;;;;;5087212;28;20411;-77
2021/12/13 02:59:13;;;;;;;5.60;3.33;;;7.20;99.90;;;;;;5087887;28;20021;-77
2021/12/13 03:01:56;;;;;;;5.53;3.17;;;7.20;99.90;;;;;;5090749;28;20025;-77
2021/12/13 03:04:24;;;;;;;5.15;2.97;;;7.20;99.90;;;;;;5091867;28;20035;-76
2021/12/13 03:06:54;;;;;;;3.70;2.65;;;7.30;99.90;;;;;;5089246;28;20046;-76
2021/12/13 03:09:23;;;;;;;4.68;2.50;;;7.30;99.90;;;;;;5088774;28;20027;-76
2021/12/13 03:11:52;;;;;;;5.75;2.33;;;7.30;99.90;;;;;;5088514;28;20325;-76
2021/12/13 03:14:17;;;;;;;2.75;2.00;;;7.40;97.10;;;;;;5087556;28;20032;-76
2021/12/13 03:16:49;;;;;;;2.25;1.77;;;7.40;97.10;;;;;;5090917;28;20043;-76
2021/12/13 03:19:40;;;;;;;3.15;2.40;;;7.40;98.50;;;;;;5089550;28;20068;-76
2021/12/13 03:22:20;;;;;;;4.43;2.47;;;7.50;99.20;;;;;;5089188;28;20035;-76
2021/12/13 03:25:04;;;;;;;3.47;2.30;;;7.60;98.40;;;;;;5088987;28;20107;-76
2021/12/13 03:27:53;;;;;;;3.15;2.20;;;7.60;98.60;;;;;;5091363;28;20032;-76
2021/12/13 03:30:45;;;;;;;3.13;2.35;;;7.50;97.50;;;;;;5072859;28;20495;-76
2021/12/13 03:33:13;;;;;;;7.45;3.03;;;7.50;98.60;;;;;;5083733;28;20044;-75
2021/12/13 03:35:42;;;;;;;3.25;2.55;;;7.50;97.60;;;;;;5088350;28;20081;-76
2021/12/13 03:38:19;;;;;;;3.30;2.33;;;7.40;96.20;;;;;;5086561;28;20024;-76
2021/12/13 03:40:47;;;;;;;3.35;2.28;;;7.40;95.80;;;;;;5090310;28;20043;-76
2021/12/13 03:43:18;;;;;;;2.75;2.20;;;7.40;96.20;;;;;;5086777;28;20111;-76
2021/12/13 03:45:53;;;;;;;2.63;2.08;;;7.40;96.60;;;;;;5089391;28;20027;-76
2021/12/13 03:48:22;;;;;;;3.22;2.30;;;7.50;95.60;;;;;;5089405;28;20028;-76
2021/12/13 03:50:51;;;;;;;3.17;2.33;;;7.50;97.30;;;;;;5090624;28;20034;-76
2021/12/13 03:53:26;;;;;;;3.53;2.72;;;7.50;99.30;;;;;;5090567;28;20032;-76
2021/12/13 03:55:56;;;;;;;4.18;2.63;;;7.50;99.90;;;;;;5083930;28;20059;-75
2021/12/13 03:58:24;;;;;;;3.20;2.45;;;7.40;99.90;;;;;;5091830;28;20060;-76
2021/12/13 04:00:59;;;;;;;4.82;2.85;;;7.40;99.90;;;;;;5085903;28;20016;-75
2021/12/13 04:03:27;;;;;;;2.92;2.63;;;7.30;99.90;;;;;;5086401;28;20486;-75
2021/12/13 04:05:54;;;;;;;3.45;2.50;;;7.30;99.90;;;;;;5086951;28;20028;-76
2021/12/13 04:08:21;;;;;;;3.13;2.80;;;7.30;99.90;;;;;;5090980;28;20054;-76
2021/12/13 04:10:54;;;;;;;3.38;2.53;;;7.30;99.90;;;;;;5081453;28;20486;-76
2021/12/13 04:13:22;;;;;;;;;;;7.30;99.90;;;;;;5090773;28;20046;-75
2021/12/13 04:16:50;;;;;;;3.25;2.70;;;7.20;99.90;;;;;;5088371;28;19919;-75
2021/12/13 04:19:06;;;;;;;7.47;2.45;;;7.20;99.90;;;;;;5087822;28;20072;-75
2021/12/13 04:21:38;;;;;;;4.10;3.10;;;7.20;99.90;;;;;;5084216;28;20414;-75
2021/12/13 04:24:21;;;;;;;3.37;2.23;;;7.30;99.90;;;;;;5092327;28;20553;-75
2021/12/13 04:26:55;;;;;;;4.80;2.30;;;7.20;99.90;;;;;;5091244;28;20281;-76
2021/12/13 04:29:29;;;;;;;4.97;2.58;;;7.20;99.90;;;;;;5088805;28;20043;-75
2021/12/13 04:31:56;;;;;;;4.63;2.60;;;7.20;99.90;;;;;;5089103;28;20114;-76
2021/12/13 04:34:25;;;;;;;2.90;2.30;;;7.10;99.90;;;;;;5087570;28;20043;-75
2021/12/13 04:36:54;;;;;;;5.03;2.72;;;7.20;99.90;;;;;;5090132;28;20089;-75
2021/12/13 04:39:33;;;;;;;3.50;2.40;;;7.20;99.90;;;;;;5111861;27;20036;-75
2021/12/13 04:42:09;;;;;;;4.47;2.50;;;7.20;99.90;;;;;;5089679;28;20051;-75
2021/12/13 04:44:43;;;;;;;3.53;2.45;;;7.30;99.90;;;;;;5086694;28;20026;-75
2021/12/13 04:47:13;;;;;;;4.13;2.53;;;7.30;99.90;;;;;;5089347;28;20024;-76
2021/12/13 04:49:46;;;;;;;3.08;2.22;;;7.40;99.90;;;;;;5087114;28;20024;-76
2021/12/13 04:52:16;;;;;;;2.55;1.98;;;7.30;99.90;;;;;;5078310;28;20490;-76
2021/12/13 04:54:47;;;;;;;5.82;2.20;;;7.30;99.90;;;;;;5084785;28;20038;-76
2021/12/13 04:57:15;;;;;;;4.60;2.33;;;7.20;99.90;;;;;;5090790;28;20050;-76
2021/12/13 04:59:41;;;;;;;4.15;1.95;;;7.20;99.90;;;;;;5076124;28;20368;-77
2021/12/13 05:02:10;;;;;;;3.67;1.92;;;7.20;99.90;;;;;;5088607;28;20039;-75
2021/12/13 05:04:37;;;;;;;4.60;2.10;;;7.20;99.90;;;;;;5088833;28;20032;-77
2021/12/13 05:07:05;;;;;;;3.30;2.10;;;7.20;99.90;;;;;;5090504;28;20485;-76
2021/12/13 05:09:32;;;;;;;2.17;1.73;;;7.30;99.90;;;;;;5091033;28;20032;-76
2021/12/13 05:12:07;;;;;;;2.67;2.05;;;7.30;99.90;;;;;;5088254;28;20020;-76
2021/12/13 05:14:46;;;;;;;3.08;1.83;;;7.40;99.90;;;;;;5082976;28;20347;-76
2021/12/13 05:17:17;;;;;;;2.63;1.90;;;7.40;99.90;;;;;;5090565;28;20077;-76
2021/12/13 05:20:08;;;;;;;2.80;2.00;;;7.40;99.90;;;;;;5081810;28;20032;-77
2021/12/13 05:22:55;;;;;;;2.83;1.88;;;7.40;99.90;;;;;;5082455;28;20032;-76
2021/12/13 05:25:34;;;;;;;4.40;1.95;;;7.40;99.90;;;;;;5086934;28;20020;-76
2021/12/13 05:28:14;;;;;;;3.60;2.30;;;7.40;99.90;;;;;;5088536;28;20725;-76
2021/12/13 05:31:07;;;;;;;2.78;2.03;;;7.40;99.90;;;;;;5086427;28;20024;-75
2021/12/13 05:33:36;;;;;;;8.77;2.10;;;7.40;99.90;;;;;;5086232;28;20039;-75
2021/12/13 05:36:08;;;;;;;4.07;1.85;;;7.40;99.90;;;;;;5087795;28;20278;-75
2021/12/13 05:38:44;;;;;;;5.65;4.20;;;7.40;99.90;;;;;;5089154;28;20508;-76
2021/12/13 05:41:18;;;;;;;6.53;5.93;;;7.40;99.90;;;;;;5088573;28;20437;-76
2021/12/13 05:43:50;;;;;;;6.20;5.60;;;7.40;99.90;;;;;;5088084;28;20056;-76
2021/12/13 05:46:34;;;;;;;;;;;7.30;99.90;;;;;;5089467;28;20031;-76
2021/12/13 05:49:05;;;;;;;5.00;4.50;;;7.40;99.90;;;;;;5088282;28;19911;-75
2021/12/13 05:51:32;;;;;;;2.45;2.25;;;7.40;99.90;;;;;;5087360;28;20111;-78
2021/12/13 05:54:13;;;;;;;2.95;2.45;;;7.40;99.90;;;;;;5090705;28;20044;-75
2021/12/13 05:56:49;;;;;;;3.45;2.80;;;7.40;99.90;;;;;;5088970;28;20457;-76
2021/12/13 05:59:39;;;;;;;4.35;2.20;;;7.50;99.90;;;;;;5082802;28;20029;-76
2021/12/13 06:02:13;;;;;;;2.67;1.73;;;7.50;99.90;;;;;;5085724;28;20016;-75
2021/12/13 06:04:55;;;;;;;3.45;2.10;;;7.60;99.90;;;;;;5076983;28;20051;-75
2021/12/13 06:07:30;;;;;;;7.93;3.17;;;7.60;99.90;;;;;;5086415;28;20020;-75
2021/12/13 06:10:01;;;;;;;7.38;3.33;;;7.60;99.90;;;;;;5087698;28;20029;-75
2021/12/13 06:12:55;;;;;;;9.30;3.67;;;7.50;99.90;;;;;;5091466;28;20036;-76
2021/12/13 06:15:24;;;;;;;7.00;3.53;;;7.50;99.90;;;;;;5086134;28;20478;-75
2021/12/13 06:18:05;;;;;;;8.50;4.72;;;7.50;99.90;;;;;;5093982;28;20032;-75
2021/12/13 06:20:37;;;;;;;9.15;4.30;;;7.50;99.90;;;;;;5086291;28;20531;-77
2021/12/13 06:23:04;;;;;;;11.63;5.53;;;7.50;99.90;;;;;;5091358;28;20035;-77
2021/12/13 06:25:30;;;;;;;9.70;4.68;;;7.50;99.90;;;;;;5094026;28;20386;-77
2021/12/13 06:27:59;;;;;;;9.45;4.32;;;7.50;99.90;;;;;;5093619;28;20065;-81
2021/12/13 06:30:30;;;;;;;9.25;4.80;;;7.50;99.90;;;;;;5089418;28;20043;-78
2021/12/13 06:33:12;;;;;;;7.93;4.50;;;7.60;99.90;;;;;;5087085;28;20041;-77
2021/12/13 06:35:51;;;;;;;8.32;4.28;;;7.60;99.90;;;;;;5092068;28;20391;-78
2021/12/13 06:38:20;;;;;;;7.75;4.18;;;7.60;99.90;;;;;;5087345;28;20435;-76
2021/12/13 06:41:10;;;;;;;7.43;3.63;;;7.60;99.90;;;;;;5093729;28;20043;-76
2021/12/13 06:43:45;;;;;;;6.43;3.33;;;7.50;99.90;;;;;;5093221;28;20040;-76
2021/12/13 06:46:23;;;;;;;6.28;2.67;;;7.50;99.90;;;;;;5093491;28;20028;-76
2021/12/13 06:49:05;;;;;;;3.50;2.45;;;7.60;99.90;;;;;;5094006;28;20024;-76
2021/12/13 06:51:55;;;;;;;4.38;2.58;;;7.60;99.90;;;;;;5091178;28;20028;-76
2021/12/13 06:54:33;;;;;;;7.13;2.80;;;7.60;99.90;;;;;;5093434;28;20044;-75
2021/12/13 06:56:59;;;;;;;4.82;2.70;;;7.70;99.90;;;;;;5092940;28;20027;-76
2021/12/13 06:59:26;;;;;;;4.63;2.35;;;7.80;99.90;;;;;;5093975;28;20016;-75
2021/12/13 07:02:15;;;;;;;7.28;3.00;;;7.80;99.90;;;;;;5093180;28;20024;-75
2021/12/13 07:04:52;;;;;;;7.65;3.92;;;7.90;99.90;;;;;;5092988;28;20066;-75
2021/12/13 07:07:23;;;;;;;6.65;3.63;;;7.90;99.90;;;;;;5093428;28;20023;-77
2021/12/13 07:10:14;;;;;;;11.88;4.75;;;7.90;99.90;;;;;;5089914;28;20600;-78
2021/12/13 07:12:49;;;;;;;12.77;4.53;;;7.90;99.90;;;;;;5091977;28;20052;-76
2021/12/13 07:15:44;;;;;;;11.20;4.78;;;8.00;99.90;;;;;;5093445;28;20042;-77
2021/12/13 07:18:29;;;;;;;21.77;5.93;;;8.00;99.90;;;;;;5085934;28;20089;-78
2021/12/13 07:21:04;;;;;;;17.08;5.90;;;8.00;99.90;;;;;;5092455;28;20608;-78
2021/12/13 07:24:05;;;;;;;12.85;4.68;;;8.00;99.90;;;;;;5093866;28;20035;-82
2021/12/13 07:26:53;;;;;;;13.75;5.57;;;8.10;99.90;;;;;;5090201;28;20027;-78
2021/12/13 07:29:21;;;;;;;15.38;5.75;;;8.00;99.90;;;;;;5092383;28;20112;-77
2021/12/13 07:32:05;;;;;;;11.77;6.25;;;8.00;99.90;;;;;;5091652;28;20028;-76
2021/12/13 07:34:32;;;;;;;17.92;9.13;;;7.90;99.90;;;;;;5092996;28;20047;-76
2021/12/13 07:37:02;;;;;;;17.05;6.20;;;7.90;99.90;;;;;;5092854;28;20451;-75
2021/12/13 07:39:31;;;;;;;9.18;4.53;;;8.00;99.90;;;;;;5090978;28;20031;-76
2021/12/13 07:42:08;;;;;;;9.48;3.97;;;8.00;99.90;;;;;;5091089;28;20051;-76
2021/12/13 07:44:39;;;;;;;9.88;4.22;;;8.00;99.90;;;;;;5091323;28;20049;-76
2021/12/13 07:47:11;;;;;;;7.07;4.28;;;8.20;99.90;;;;;;5092646;28;20032;-76
2021/12/13 07:49:42;;;;;;;7.70;4.60;;;8.20;99.90;;;;;;5092465;28;20072;-76
2021/12/13 07:52:21;;;;;;;6.43;3.58;;;8.30;99.90;;;;;;5093079;28;20953;-76
2021/12/13 07:54:47;;;;;;;4.97;2.42;;;8.40;99.90;;;;;;5088551;28;20387;-75
2021/12/13 07:57:19;;;;;;;6.90;2.92;;;8.50;99.80;;;;;;5091660;28;20119;-77
2021/12/13 07:59:45;;;;;;;5.40;3.47;;;8.70;99.50;;;;;;5086337;28;20063;-77
2021/12/13 08:02:22;;;;;;;7.20;2.88;;;8.80;99.80;;;;;;5092390;28;20052;-77
2021/12/13 08:05:12;;;;;;;5.53;3.17;;;9.00;98.70;;;;;;5088509;28;20024;-77
2021/12/13 08:07:44;;;;;;;8.52;3.72;;;9.30;97.60;;;;;;5084883;28;20531;-76
2021/12/13 08:10:17;;;;;;;5.45;3.42;;;9.50;96.70;;;;;;5090051;28;20020;-77
2021/12/13 08:12:49;;;;;;;12.38;4.97;;;9.60;97.90;;;;;;5092290;28;20040;-76
2021/12/13 08:15:24;;;;;;;10.98;4.00;;;9.90;97.40;;;;;;5089654;28;20851;-76
2021/12/13 08:17:50;;;;;;;9.18;4.15;;;10.00;97.20;;;;;;5092184;28;20036;-76
2021/12/13 08:20:24;;;;;;;7.65;3.38;;;10.10;96.10;;;;;;5091711;28;20028;-76
2021/12/13 08:22:50;;;;;;;13.40;3.58;;;10.20;96.30;;;;;;5090908;28;20032;-76
2021/12/13 08:25:22;;;;;;;8.32;3.70;;;10.40;96.10;;;;;;5083178;28;20178;-77
2021/12/13 08:27:54;;;;;;;7.43;4.68;;;10.50;95.60;;;;;;5092188;28;20032;-76
2021/12/13 08:30:32;;;;;;;15.63;8.77;;;10.60;95.20;;;;;;5079932;28;20020;-76
2021/12/13 08:33:05;;;;;;;15.60;9.07;;;10.70;95.80;;;;;;5117532;27;20048;-76
2021/12/13 08:35:52;;;;;;;15.30;7.88;;;10.80;95.60;;;;;;5089831;28;20055;-77
2021/12/13 08:38:35;;;;;;;18.45;6.22;;;10.90;95.80;;;;;;5086858;28;20051;-76
2021/12/13 08:41:26;;;;;;;9.75;4.28;;;10.90;95.60;;;;;;5089733;28;20044;-76
2021/12/13 08:44:01;;;;;;;9.25;3.47;;;11.00;96.10;;;;;;5088360;28;20040;-75
2021/12/13 08:46:35;;;;;;;7.15;4.38;;;11.00;95.00;;;;;;5090973;28;20024;-77
2021/12/13 08:49:16;;;;;;;9.52;4.82;;;11.20;94.80;;;;;;5116424;27;20031;-77
2021/12/13 08:51:53;;;;;;;9.18;5.40;;;11.30;94.20;;;;;;5091191;28;20647;-76
2021/12/13 08:54:21;;;;;;;8.48;4.07;;;11.40;94.90;;;;;;5090666;28;20040;-76
2021/12/13 08:56:50;;;;;;;13.45;3.85;;;11.40;94.00;;;;;;5089131;28;20078;-75
2021/12/13 08:59:25;;;;;;;6.07;3.28;;;11.60;92.90;;;;;;5088842;28;20024;-76
2021/12/13 09:02:10;;;;;;;9.07;3.65;;;11.70;92.40;;;;;;5088942;28;20016;-76
2021/12/13 09:04:40;;;;;;;9.98;4.07;;;11.70;92.90;;;;;;5088642;28;20024;-76
2021/12/13 09:07:10;;;;;;;8.13;4.50;;;11.70;92.40;;;;;;5089581;28;20042;-76
2021/12/13 09:09:43;;;;;;;9.70;4.60;;;11.70;93.00;;;;;;5088425;28;20020;-76
2021/12/13 09:12:10;;;;;;;12.32;4.38;;;11.80;92.90;;;;;;5088982;28;20028;-76
2021/12/13 09:14:42;;;;;;;13.32;4.38;;;11.80;92.30;;;;;;5091455;28;20024;-76
2021/12/13 09:17:16;;;;;;;18.33;5.55;;;11.90;92.20;;;;;;5091105;28;20111;-76
2021/12/13 09:19:47;;;;;;;15.27;5.82;;;11.90;92.30;;;;;;5091309;28;20012;-76
2021/12/13 09:22:25;;;;;;;9.35;4.70;;;12.00;92.20;;;;;;5090352;28;20073;-76
2021/12/13 09:24:56;;;;;;;13.18;5.05;;;12.00;91.70;;;;;;5087237;28;20031;-76
2021/12/13 09:27:40;;;;;;;17.58;5.82;;;12.10;91.50;;;;;;5086843;28;20099;-77
2021/12/13 09:30:16;;;;;;;12.95;5.30;;;12.20;92.60;;;;;;5088740;28;20016;-77
2021/12/13 09:33:16;;;;;;;7.80;4.97;;;12.10;92.90;;;;;;5089345;28;20039;-76
2021/12/13 09:35:55;;;;;;;5.85;4.13;;;12.20;90.10;;;;;;5082344;28;20089;-77
2021/12/13 09:38:30;;;;;;;8.05;4.35;;;12.30;90.90;;;;;;5089297;28;20028;-76
2021/12/13 09:41:07;;;;;;;9.52;5.03;;;12.40;91.60;;;;;;5084748;28;20039;-77
2021/12/13 09:43:56;;;;;;;7.65;4.63;;;12.60;90.30;;;;;;5087832;28;20393;-76
2021/12/13 09:46:44;;;;;;;11.10;4.78;;;12.80;89.50;;;;;;5075592;28;20036;-76
2021/12/13 09:49:31;;;;;;;7.57;4.40;;;12.70;90.30;;;;;;5091212;28;20042;-77
2021/12/13 09:52:09;;;;;;;12.13;3.75;;;12.50;89.80;;;;;;5088635;28;20020;-77
2021/12/13 09:54:40;;;;;;;9.48;4.43;;;12.50;90.50;;;;;;5083334;28;20082;-76
2021/12/13 09:57:16;;;;;;;9.98;3.25;;;12.70;91.70;;;;;;5089660;28;20039;-76
2021/12/13 09:59:45;;;;;;;4.70;3.13;;;13.00;90.10;;;;;;5088391;28;20031;-76
2021/12/13 10:02:21;;;;;;;5.32;3.30;;;13.20;87.90;;;;;;5088024;28;20094;-76
2021/12/13 10:04:49;;;;;;;9.88;4.07;;;13.30;89.90;;;;;;5079287;28;20031;-76
2021/12/13 10:07:27;;;;;;;8.20;5.07;;;13.40;89.90;;;;;;5086906;28;20475;-77
2021/12/13 10:10:00;;;;;;;9.35;4.47;;;13.30;87.30;;;;;;5085259;28;20024;-78
2021/12/13 10:12:34;;;;;;;9.82;4.63;;;13.40;86.50;;;;;;5079623;28;20077;-75
2021/12/13 10:15:08;;;;;;;14.00;4.63;;;13.50;86.20;;;;;;5090158;28;20031;-77
2021/12/13 10:17:38;;;;;;;9.95;4.90;;;13.60;87.40;;;;;;5084837;28;20020;-77
2021/12/13 10:20:13;;;;;;;8.40;4.03;;;13.60;84.70;;;;;;5089045;28;20020;-76
2021/12/13 10:22:40;;;;;;;4.60;2.97;;;13.60;84.00;;;;;;5098880;28;20024;-76
2021/12/13 10:25:05;;;;;;;9.60;3.55;;;13.60;80.80;;;;;;5081029;28;20032;-76
2021/12/13 10:27:32;;;;;;;13.27;4.75;;;13.50;84.40;;;;;;5087651;28;20382;-76
2021/12/13 10:30:00;;;;;;;15.73;4.80;;;13.10;85.70;;;;;;5086325;28;20290;-76
2021/12/13 10:32:30;;;;;;;12.65;5.50;;;12.60;88.20;;;;;;5082940;28;20394;-76
2021/12/13 10:35:04;;;;;;;18.58;4.97;;;12.20;90.80;;;;;;5085638;28;20047;-76
2021/12/13 10:37:34;;;;;;;16.42;5.45;;;11.90;91.60;;;;;;5087735;28;20359;-77
2021/12/13 10:40:07;;;;;;;10.60;5.07;;;11.70;92.60;;;;;;5085673;28;20052;-75
2021/12/13 10:42:49;;;;;;;13.65;5.85;;;11.40;90.70;;;;;;5083296;28;20103;-76
2021/12/13 10:45:23;;;;;;;10.32;4.43;;;11.30;91.30;;;;;;5086927;28;20034;-74
2021/12/13 10:47:53;;;;;;;11.77;4.78;;;11.30;89.30;;;;;;5087691;28;20028;-75
2021/12/13 10:50:41;;;;;;;6.00;4.20;;;11.20;90.40;;;;;;5075136;28;20062;-76
2021/12/13 10:53:10;;;;;;;8.77;4.05;;;11.30;89.20;;;;;;5080214;28;20101;-76
2021/12/13 10:55:44;;;;;;;8.80;4.43;;;11.40;90.50;;;;;;5088830;28;20051;-75
2021/12/13 10:58:15;;;;;;;5.18;3.78;;;11.40;90.10;;;;;;5104689;27;20032;-76
2021/12/13 11:00:47;;;;;;;7.93;3.20;;;11.40;89.80;;;;;;5089713;28;20025;-76
2021/12/13 11:03:21;;;;;;;10.55;4.40;;;11.50;89.70;;;;;;5086502;28;20024;-75
2021/12/13 11:05:47;;;;;;;8.95;3.88;;;11.50;89.30;;;;;;5088924;28;20028;-76
2021/12/13 11:08:16;;;;;;;8.30;4.10;;;11.50;87.30;;;;;;5089516;28;20119;-76
2021/12/13 11:11:05;;;;;;;7.78;4.05;;;11.50;88.70;;;;;;5089763;28;20035;-76
2021/12/13 11:13:35;;;;;;;12.63;5.35;;;11.60;88.50;;;;;;5089553;28;20032;-77
2021/12/13 11:16:08;;;;;;;10.05;3.83;;;11.50;90.20;;;;;;5090641;28;20028;-76
2021/12/13 11:18:34;;;;;;;4.32;3.17;;;11.50;88.60;;;;;;5078151;28;20056;-76
2021/12/13 11:21:06;;;;;;;8.40;3.55;;;11.60;90.20;;;;;;5084721;28;20282;-75
2021/12/13 11:23:32;;;;;;;5.78;3.28;;;11.70;90.00;;;;;;5082583;28;20013;-76
2021/12/13 11:26:01;;;;;;;8.85;3.60;;;11.70;88.10;;;;;;5086918;28;20052;-76
2021/12/13 11:28:29;;;;;;;10.60;5.40;;;11.70;88.50;;;;;;5090731;28;20063;-76
2021/12/13 11:30:56;;;;;;;7.90;5.32;;;11.70;88.40;;;;;;5089494;28;20477;-76
2021/12/13 11:34:00;;;;;;;9.80;4.03;;;11.80;86.80;;;;;;5087365;28;20040;-76
2021/12/13 11:37:00;;;;;;;8.15;4.18;;;12.00;86.30;;;;;;5079864;28;20040;-76
2021/12/13 11:39:59;;;;;;;9.40;4.70;;;12.20;86.10;;;;;;5089947;28;20024;-76
2021/12/13 11:43:03;;;;;;;10.43;3.90;;;12.40;85.70;;;;;;5078937;28;20032;-77
2021/12/13 11:46:06;;;;;;;11.48;3.95;;;12.30;80.90;;;;;;5082505;28;20031;-76
2021/12/13 11:49:09;;;;;;;7.45;3.72;;;12.20;83.20;;;;;;5089511;28;20081;-76
2021/12/13 11:51:57;;;;;;;7.38;3.33;;;12.30;81.10;;;;;;5087912;28;20032;-76
2021/12/13 11:55:11;;;;;;;10.25;3.22;;;12.20;79.80;;;;;;5092800;28;20039;-76
2021/12/13 11:58:07;;;;;;;4.43;3.35;;;12.20;79.80;;;;;;5092263;28;20028;-76
2021/12/13 12:01:06;;;;;;;9.68;4.30;;;12.10;80.00;;;;;;5086017;28;20028;-76
2021/12/13 12:04:00;;;;;;;6.38;3.97;;;12.10;83.20;;;;;;5079437;28;20314;-76
2021/12/13 12:06:59;;;;;;;17.42;4.47;;;12.20;85.60;;;;;;5087579;28;20032;-78
2021/12/13 12:09:44;;;;;;;9.20;3.85;;;12.30;87.10;;;;;;5080150;28;20024;-74
2021/12/13 12:12:47;;;;;;;8.20;2.88;;;12.40;88.70;;;;;;5080975;28;20723;-75
2021/12/13 12:15:13;;;;;;;;;;;12.60;85.10;;;;;;5088562;28;20036;-75
2021/12/13 12:17:39;;;;;;;2.72;1.77;;;12.50;85.60;;;;;;5088688;28;19919;-76
2021/12/13 12:20:10;;;;;;;2.97;2.17;;;12.20;86.30;;;;;;5092075;28;20047;-76
2021/12/13 12:23:19;;;;;;;5.90;2.28;;;12.00;86.40;;;;;;5088332;28;20020;-76
2021/12/13 12:25:45;;;;;;;3.28;2.40;;;12.00;87.70;;;;;;5064139;28;20487;-78
2021/12/13 12:28:17;;;;;;;5.63;2.42;;;12.00;88.90;;;;;;5082265;28;20093;-77
2021/12/13 12:30:49;;;;;;;5.80;2.65;;;11.90;88.40;;;;;;5081892;28;20170;-77
2021/12/13 12:33:34;;;;;;;5.70;2.78;;;11.80;88.80;;;;;;5087342;28;20239;-79
2021/12/13 12:36:18;;;;;;;4.78;2.53;;;11.70;87.80;;;;;;5079020;28;20039;-81
2021/12/13 12:39:42;;;;;;;4.90;2.40;;;11.80;89.00;;;;;;5077594;28;20486;-76
2021/12/13 12:42:25;;;;;;;5.55;2.38;;;11.80;89.10;;;;;;5084575;28;20032;-78
2021/12/13 12:44:54;;;;;;;5.63;2.90;;;11.70;90.40;;;;;;5088163;28;20682;-77
2021/12/13 12:47:35;;;;;;;5.90;3.10;;;11.60;90.80;;;;;;5077380;28;20059;-76
2021/12/13 12:50:30;;;;;;;8.80;3.70;;;11.60;90.80;;;;;;5087424;28;20044;-76
2021/12/13 12:53:00;;;;;;;10.00;4.00;;;11.60;90.60;;;;;;5083481;28;20012;-80
2021/12/13 12:55:37;;;;;;;8.60;4.65;;;11.90;90.90;;;;;;5085212;28;20062;-78
2021/12/13 12:58:27;;;;;;;7.50;4.60;;;12.20;89.60;;;;;;5082143;28;20344;-79
2021/12/13 13:00:56;;;;;;;5.93;4.20;;;12.40;87.90;;;;;;5079064;28;20119;-78
2021/12/13 13:03:25;;;;;;;11.85;4.40;;;12.50;88.70;;;;;;5072018;28;20565;-78
2021/12/13 13:05:59;;;;;;;10.93;4.95;;;12.80;87.10;;;;;;5085422;28;20111;-78
2021/12/13 13:08:32;;;;;;;14.07;6.05;;;13.20;85.80;;;;;;5086715;28;20122;-79
2021/12/13 13:13:44;;;;;;;9.45;4.75;;;13.60;84.80;;;;;;5086166;28;20047;-79
2021/12/13 13:16:10;;;;;;;7.47;3.50;;;14.10;83.90;;;;;;5086958;28;20032;-78
2021/12/13 13:18:39;;;;;;;5.30;3.65;;;14.10;85.70;;;;;;5087963;28;20579;-77
2021/12/13 13:21:07;;;;;;;5.75;2.85;;;13.90;88.80;;;;;;5090050;28;20016;-78
2021/12/13 13:23:44;;;;;;;5.75;3.05;;;13.50;90.00;;;;;;5086942;28;20020;-78
2021/12/13 13:26:11;;;;;;;5.13;2.33;;;13.20;90.40;;;;;;5087115;28;20394;-79
2021/12/13 13:28:45;;;;;;;3.67;2.38;;;12.90;90.70;;;;;;5084466;28;20056;-78
2021/12/13 13:31:20;;;;;;;4.97;2.35;;;12.70;91.50;;;;;;5080610;28;20017;-78
2021/12/13 13:33:51;;;;;;;3.08;2.28;;;12.70;91.10;;;;;;5084822;28;20031;-77
2021/12/13 13:36:24;;;;;;;3.78;2.17;;;12.40;91.20;;;;;;5083846;28;20038;-77
2021/12/13 13:38:50;;;;;;;6.38;2.33;;;12.20;91.70;;;;;;5083870;28;20055;-77
2021/12/13 13:41:20;;;;;;;3.03;2.35;;;12.00;91.50;;;;;;5074731;28;20519;-77
2021/12/13 13:43:49;;;;;;;3.60;2.05;;;11.70;92.80;;;;;;5086710;28;20028;-77
2021/12/13 13:46:15;;;;;;;4.25;2.28;;;11.50;93.20;;;;;;5086202;28;20024;-76
2021/12/13 13:48:41;;;;;;;4.30;2.33;;;11.40;93.50;;;;;;5087942;28;20047;-76
2021/12/13 13:51:17;;;;;;;4.68;2.47;;;11.30;93.70;;;;;;5087052;28;20035;-77